createdAt,value
2023-07-29T00:00:57.232Z,69.13
2023-07-29T00:06:03.916Z,69.21
2023-07-29T00:11:06.228Z,69.70
2023-07-29T00:16:09.697Z,69.84
2023-07-29T00:21:11.968Z,70.29
2023-07-29T00:26:14.031Z,70.16
2023-07-29T00:31:17.406Z,70.50
2023-07-29T00:36:19.529Z,68.95
2023-07-29T00:41:23.190Z,68.46
2023-07-29T00:46:28.878Z,67.32
2023-07-29T00:51:30.902Z,67.06
2023-07-29T00:56:33.030Z,66.74
2023-07-29T01:01:37.719Z,65.96
2023-07-29T01:06:46.691Z,66.25
2023-07-29T01:11:57.647Z,65.65
2023-07-29T01:17:04.743Z,64.45
2023-07-29T01:22:09.163Z,65.21
2023-07-29T01:27:12.540Z,64.92
2023-07-29T01:32:20.403Z,65.58
2023-07-29T01:37:27.982Z,64.88
2023-07-29T01:42:32.445Z,66.04
2023-07-29T01:47:34.537Z,66.07
2023-07-29T01:52:37.026Z,65.95
2023-07-29T01:57:40.387Z,65.48
2023-07-29T02:02:42.462Z,65.80
2023-07-29T02:07:44.668Z,65.82
2023-07-29T02:12:47.963Z,65.77
2023-07-29T02:17:51.733Z,66.92
2023-07-29T02:22:53.912Z,67.98
2023-07-29T02:27:57.341Z,68.41
2023-07-29T02:33:00.860Z,68.70
2023-07-29T02:38:03.042Z,69.86
2023-07-29T02:43:06.551Z,69.58
2023-07-29T02:48:08.580Z,70.07
2023-07-29T02:53:10.592Z,71.63
2023-07-29T02:58:13.919Z,72.54
2023-07-29T03:03:16.068Z,74.40
2023-07-29T03:08:18.199Z,75.32
2023-07-29T03:13:21.660Z,74.71
2023-07-29T03:18:23.658Z,73.74
2023-07-29T03:23:25.644Z,74.66
2023-07-29T03:28:30.969Z,74.70
2023-07-29T03:33:33.199Z,74.87
2023-07-29T03:38:36.499Z,74.68
2023-07-29T03:43:40.176Z,75.17
2023-07-29T03:48:42.241Z,75.43
2023-07-29T03:53:44.273Z,74.66
2023-07-29T03:58:49.316Z,74.40
2023-07-29T04:03:53.255Z,75.43
2023-07-29T04:08:55.686Z,76.72
2023-07-29T04:13:59.001Z,77.74
2023-07-29T04:19:00.996Z,76.89
2023-07-29T04:24:03.097Z,76.94
2023-07-29T04:29:06.509Z,76.64
2023-07-29T04:34:08.513Z,75.91
2023-07-29T04:39:10.630Z,75.23
2023-07-29T04:44:14.035Z,74.49
2023-07-29T04:49:16.072Z,72.70
2023-07-29T04:54:18.126Z,70.80
2023-07-29T04:59:21.498Z,69.25
2023-07-29T05:04:24.132Z,67.89
2023-07-29T05:09:28.750Z,69.45
2023-07-29T05:14:32.543Z,70.50
2023-07-29T05:19:34.575Z,71.03
2023-07-29T05:24:36.706Z,70.47
2023-07-29T05:29:40.128Z,66.81
2023-07-29T05:34:42.185Z,66.17
2023-07-29T05:39:44.244Z,63.46
2023-07-29T05:44:48.670Z,63.35
2023-07-29T05:49:50.769Z,64.79
2023-07-29T05:54:52.766Z,62.36
2023-07-29T05:59:56.246Z,63.53
2023-07-29T06:04:58.470Z,62.32
2023-07-29T06:10:00.574Z,62.49
2023-07-29T06:15:04.783Z,61.21
2023-07-29T06:20:07.635Z,61.06
2023-07-29T06:25:09.731Z,61.20
2023-07-29T06:30:13.258Z,61.06
2023-07-29T06:35:15.435Z,61.99
2023-07-29T06:40:17.648Z,61.68
2023-07-29T06:45:21.071Z,61.75
2023-07-29T06:50:23.099Z,60.00
2023-07-29T06:55:25.096Z,60.35
2023-07-29T07:00:28.582Z,60.15
2023-07-29T07:05:30.622Z,59.86
2023-07-29T07:10:34.814Z,60.11
2023-07-29T07:15:38.215Z,60.80
2023-07-29T07:20:40.400Z,59.95
2023-07-29T07:25:43.508Z,58.42
2023-07-29T07:30:47.136Z,58.97
2023-07-29T07:35:49.188Z,58.85
2023-07-29T07:40:56.099Z,57.38
2023-07-29T07:46:03.041Z,56.36
2023-07-29T07:51:11.290Z,54.80
2023-07-29T07:56:13.578Z,54.79
2023-07-29T08:01:17.032Z,55.13
2023-07-29T08:06:19.033Z,54.58
2023-07-29T08:11:21.123Z,56.18
2023-07-29T08:16:24.519Z,56.54
2023-07-29T08:21:27.697Z,58.42
2023-07-29T08:26:29.693Z,59.54
2023-07-29T08:31:35.202Z,58.95
2023-07-29T08:36:37.634Z,57.88
2023-07-29T08:41:46.739Z,58.10
2023-07-29T08:46:50.345Z,57.90
2023-07-29T08:51:54.735Z,57.30
2023-07-29T08:56:57.311Z,57.95
2023-07-29T09:02:00.970Z,55.99
2023-07-29T09:07:03.859Z,55.63
2023-07-29T09:12:07.406Z,56.54
2023-07-29T09:17:11.263Z,57.35
2023-07-29T09:22:19.206Z,57.04
2023-07-29T09:27:28.363Z,56.37
2023-07-29T09:32:31.818Z,57.47
2023-07-29T09:37:33.845Z,58.63
2023-07-29T09:42:35.856Z,58.01
2023-07-29T09:47:39.758Z,54.43
2023-07-29T09:52:43.598Z,51.62
2023-07-29T09:57:46.242Z,54.63
2023-07-29T10:02:50.718Z,56.02
2023-07-29T10:07:53.330Z,54.01
2023-07-29T10:12:57.497Z,52.14
2023-07-29T10:18:02.276Z,54.97
2023-07-29T10:23:08.186Z,52.06
2023-07-29T10:28:13.662Z,50.85
2023-07-29T10:33:17.508Z,51.83
2023-07-29T10:38:22.209Z,50.49
2023-07-29T10:43:26.564Z,47.48
2023-07-29T10:48:43.022Z,47.24
2023-07-29T10:53:45.142Z,47.09
2023-07-29T10:58:47.687Z,45.77
2023-07-29T11:04:26.421Z,48.97
2023-07-29T11:09:40.820Z,47.50
2023-07-29T11:14:42.882Z,48.31
2023-07-29T11:19:47.293Z,49.86
2023-07-29T11:24:49.284Z,49.47
2023-07-29T11:29:51.398Z,48.05
2023-07-29T11:34:54.797Z,48.84
2023-07-29T11:39:56.826Z,51.02
2023-07-29T11:45:01.722Z,54.03
2023-07-29T11:50:06.974Z,55.35
2023-07-29T11:55:09.274Z,55.61
2023-07-29T12:00:13.584Z,58.87
2023-07-29T12:05:20.054Z,61.52
2023-07-29T12:10:22.984Z,67.20
2023-07-29T12:15:26.355Z,70.09
2023-07-29T12:20:30.991Z,69.19
2023-07-29T12:25:33.154Z,65.05
2023-07-29T12:30:35.690Z,63.53
2023-07-29T12:35:39.579Z,62.48
2023-07-29T12:40:43.279Z,60.54
2023-07-29T12:45:45.493Z,61.91
2023-07-29T12:50:49.025Z,61.40
2023-07-29T12:55:51.078Z,59.69
2023-07-29T13:00:53.694Z,60.38
2023-07-29T13:05:57.174Z,60.08
2023-07-29T13:10:59.268Z,59.50
2023-07-29T13:16:02.735Z,56.75
2023-07-29T13:21:06.341Z,58.71
2023-07-29T13:26:08.476Z,58.69
2023-07-29T13:31:10.504Z,59.27
2023-07-29T13:36:13.891Z,59.47
2023-07-29T13:41:15.941Z,58.60
2023-07-29T13:46:18.137Z,55.22
2023-07-29T13:51:21.618Z,56.45
2023-07-29T13:56:23.701Z,55.06
2023-07-29T14:01:25.809Z,51.40
2023-07-29T14:06:45.238Z,56.67
2023-07-29T14:11:48.752Z,53.87
2023-07-29T14:16:50.829Z,53.38
2023-07-29T14:21:54.427Z,52.74
2023-07-29T14:26:56.481Z,52.31
2023-07-29T14:31:58.557Z,49.93
2023-07-29T14:37:01.989Z,51.52
2023-07-29T14:42:04.526Z,51.49
2023-07-29T14:47:07.325Z,50.22
2023-07-29T14:52:10.858Z,51.10
2023-07-29T14:57:12.889Z,50.58
2023-07-29T15:02:15.006Z,50.15
2023-07-29T15:07:18.406Z,49.76
2023-07-29T15:12:20.428Z,49.63
2023-07-29T15:17:22.547Z,49.31
2023-07-29T15:22:26.036Z,48.43
2023-07-29T15:27:29.148Z,49.81
2023-07-29T15:32:31.208Z,51.12
2023-07-29T15:37:34.561Z,51.71
2023-07-29T15:42:36.581Z,54.42
2023-07-29T15:47:38.708Z,56.59
2023-07-29T15:52:44.892Z,59.00
2023-07-29T15:57:47.269Z,58.40
2023-07-29T16:02:49.705Z,59.85
2023-07-29T16:07:54.474Z,61.15
2023-07-29T16:12:56.607Z,61.94
2023-07-29T16:18:00.760Z,62.84
2023-07-29T16:23:05.106Z,64.24
2023-07-29T16:28:08.461Z,64.36
2023-07-29T16:33:10.669Z,64.53
2023-07-29T16:38:14.125Z,63.60
2023-07-29T16:43:16.124Z,60.12
2023-07-29T16:48:18.165Z,58.80
2023-07-29T16:53:21.510Z,58.26
2023-07-29T16:58:23.629Z,57.93
2023-07-29T17:03:25.695Z,61.23
2023-07-29T17:08:29.148Z,58.92
2023-07-29T17:13:31.185Z,51.34
2023-07-29T17:18:34.016Z,49.81
2023-07-29T17:23:37.387Z,51.32
2023-07-29T17:28:39.478Z,52.69
2023-07-29T17:33:43.145Z,49.92
2023-07-29T17:38:46.580Z,50.68
2023-07-29T17:43:50.837Z,49.60
2023-07-29T17:48:52.910Z,50.06
2023-07-29T17:53:56.410Z,52.03
2023-07-29T17:58:58.418Z,52.91
2023-07-29T18:04:00.987Z,52.26
2023-07-29T18:09:04.495Z,52.79
2023-07-29T18:14:06.549Z,54.75
2023-07-29T18:19:08.798Z,54.88
2023-07-29T18:24:12.166Z,55.03
2023-07-29T18:29:14.459Z,55.22
2023-07-29T18:34:16.515Z,56.30
2023-07-29T18:39:19.945Z,57.66
2023-07-29T18:44:21.994Z,58.49
2023-07-29T18:49:24.692Z,59.40
2023-07-29T18:54:28.136Z,60.90
2023-07-29T18:59:30.248Z,61.99
2023-07-29T19:04:32.336Z,62.58
2023-07-29T19:09:35.817Z,63.04
2023-07-29T19:14:37.882Z,63.95
2023-07-29T19:19:39.935Z,64.24
2023-07-29T19:24:43.547Z,62.64
2023-07-29T19:29:46.068Z,61.45
2023-07-29T19:34:55.121Z,61.19
2023-07-29T19:39:58.546Z,61.09
2023-07-29T19:45:00.611Z,61.11
2023-07-29T19:50:02.735Z,62.08
2023-07-29T19:55:07.506Z,61.07
2023-07-29T20:00:11.149Z,61.55
2023-07-29T20:05:13.230Z,61.61
2023-07-29T20:10:16.793Z,62.17
2023-07-29T20:15:19.432Z,62.13
2023-07-29T20:20:21.493Z,61.95
2023-07-29T20:25:24.946Z,60.78
2023-07-29T20:30:28.180Z,62.63
2023-07-29T20:35:30.306Z,64.31
2023-07-29T20:40:33.756Z,65.80
2023-07-29T20:45:36.366Z,68.31
2023-07-29T20:50:39.924Z,67.21
2023-07-29T20:55:43.688Z,67.91
2023-07-29T21:00:46.513Z,63.97
2023-07-29T21:05:49.148Z,64.09
2023-07-29T21:10:54.022Z,63.51
2023-07-29T21:15:57.642Z,60.29
2023-07-29T21:20:59.697Z,60.91
2023-07-29T21:26:03.069Z,60.29
2023-07-29T21:31:05.171Z,59.47
2023-07-29T21:36:07.371Z,58.72
2023-07-29T21:41:10.876Z,58.70
2023-07-29T21:46:13.366Z,59.17
2023-07-29T21:51:15.472Z,58.69
2023-07-29T21:56:18.869Z,59.30
2023-07-29T22:01:20.936Z,59.19
2023-07-29T22:06:23.136Z,59.28
2023-07-29T22:11:26.616Z,58.88
2023-07-29T22:16:28.743Z,59.13
2023-07-29T22:21:30.799Z,58.21
2023-07-29T22:26:34.278Z,59.21
2023-07-29T22:31:36.614Z,58.28
2023-07-29T22:36:38.883Z,58.13
2023-07-29T22:41:42.247Z,59.33
2023-07-29T22:46:46.404Z,59.34
2023-07-29T22:51:48.433Z,59.31
2023-07-29T22:56:51.845Z,58.49
2023-07-29T23:01:54.554Z,58.88
2023-07-29T23:06:58.545Z,59.26
2023-07-29T23:12:02.004Z,59.12
2023-07-29T23:17:04.051Z,59.42
2023-07-29T23:22:06.274Z,59.40
2023-07-29T23:27:09.641Z,59.06
2023-07-29T23:32:11.659Z,57.57
2023-07-29T23:37:13.658Z,56.88
2023-07-29T23:42:17.068Z,56.26
2023-07-29T23:47:19.039Z,55.71
2023-07-29T23:52:21.104Z,55.42
2023-07-29T23:57:24.477Z,55.80
